Goliah — WDD5908 — position and weather

sailwx.info

Track history (hours):
 
Tides and Currents Weather Stations Pressure Air Temp Water Temp Dewpoint Dewpoint Depression Visibility Wind Speed Wind Dir Waves Ship Positions

Goliah

Owner: Crowley Marine Services, Seattle, WA. More information available from US FCC via Universal Licensing System and Coast Guard Vessel Documentation Center.

Last reported at 2017-Mar-27 01:23 UTC. Time now 2017-Mar-27 08:42 UTC.
Position N 33°44' W 118°17'.

Length 33 m; draft 4.8 m.

Type: Tug. MMSI: 366898250.

Date/timePositionNaut miles runAvg speedWind from/ knotsBaromVisibWave heightAir tempDewpointWater temp
2017-Mar-27 01:23N 33°44' W 118°17'3 0.2
2017-Mar-26 08:12N 33°45' W 118°13'1 0.1
2017-Mar-25 21:26N 33°45' W 118°13'2 2.1
2017-Mar-25 20:32N 33°44' W 118°12'4 0.4
2017-Mar-25 10:30N 33°45' W 118°16'0 0.5
2017-Mar-25 09:32N 33°46' W 118°17'1 0.7
2017-Mar-25 07:32N 33°44' W 118°17'0 0.0
2017-Mar-25 04:20N 33°44' W 118°17'0 0.0
2017-Mar-25 03:33N 33°44' W 118°17'0 0.0
2017-Mar-25 02:28N 33°44' W 118°17'3 3.5
2017-Mar-25 01:33N 33°46' W 118°13'1 0.7
2017-Mar-25 00:33N 33°46' W 118°14'1 1.5
2017-Mar-24 23:33N 33°45' W 118°13'0 0.0
2017-Mar-24 22:33N 33°45' W 118°13'0 0.3
2017-Mar-24 21:33N 33°45' W 118°13'1 0.6
2017-Mar-24 19:32N 33°46' W 118°13'3 2.9
2017-Mar-24 18:26N 33°44' W 118°17'0 0.0
2017-Mar-24 15:33N 33°44' W 118°17'0 0.0
2017-Mar-24 14:14N 33°44' W 118°17'0 0.0
2017-Mar-24 13:33N 33°44' W 118°17'1 1.4
2017-Mar-24 12:33N 33°46' W 118°16'4 2.7
2017-Mar-24 11:14N 33°43' W 118°13'2 2.5
2017-Mar-24 10:33N 33°45' W 118°12'0 0.1
2017-Mar-24 09:32N 33°45' W 118°12'4 0.4
2017-Mar-24 00:27N 33°46' W 118°16'1 0.7
2017-Mar-23 22:29N 33°45' W 118°17'1 1.5
2017-Mar-23 21:31N 33°43' W 118°16'1 1.3
2017-Mar-23 20:32N 33°44' W 118°17'2 0.1
2017-Mar-22 22:22N 33°43' W 118°15'3 2.9
2017-Mar-22 21:25N 33°45' W 118°16'0 0.5
2017-Mar-22 20:33N 33°45' W 118°16'1 0.5
2017-Mar-22 19:19N 33°44' W 118°17'1 0.0
2017-Mar-21 23:32N 33°44' W 118°16'2 2.2
2017-Mar-21 22:32N 33°46' W 118°17'2 1.6
2017-Mar-21 21:33N 33°44' W 118°17'0 0.0
2017-Mar-21 20:33N 33°44' W 118°17'0 0.1
2017-Mar-21 15:10N 33°44' W 118°17'3 2.1
2017-Mar-21 13:31N 33°44' W 118°12'1 0.2
2017-Mar-21 11:26N 33°45' W 118°13'3 0.2
2017-Mar-20 19:29N 33°44' W 118°17'3 0.4
2017-Mar-20 13:23N 33°44' W 118°14'2 1.8
2017-Mar-20 12:29N 33°45' W 118°12'0 0.1
2017-Mar-20 07:10N 33°45' W 118°13'0 0.1
2017-Mar-20 05:21N 33°45' W 118°13'4 4.8
2017-Mar-20 04:28N 33°41' W 118°10'4 4.4
2017-Mar-20 03:33N 33°43' W 118°15'2 2.3
2017-Mar-20 02:33N 33°44' W 118°17'0 0.0
2017-Mar-20 01:31N 33°44' W 118°17'3 2.9
2017-Mar-20 00:33N 33°44' W 118°13'2 2.1
2017-Mar-19 23:33N 33°46' W 118°14'0 0.2
2017-Mar-19 22:33N 33°46' W 118°14'3 3.2
2017-Mar-19 21:32N 33°43' W 118°12'4 4.1
2017-Mar-19 20:31N 33°44' W 118°17'0 0.0
2017-Mar-19 19:33N 33°44' W 118°17'0 0.0
2017-Mar-19 18:33N 33°44' W 118°17'0 0.0
2017-Mar-19 17:30N 33°44' W 118°17'0 0.0
2017-Mar-19 16:34N 33°44' W 118°17'0 0.0
2017-Mar-19 15:32N 33°44' W 118°17'0 0.0
2017-Mar-19 14:33N 33°44' W 118°17'1 0.6
2017-Mar-19 13:33N 33°44' W 118°16'1 1.2
2017-Mar-19 12:33N 33°44' W 118°15'0 0.3
2017-Mar-19 11:33N 33°44' W 118°15'1 1.2
2017-Mar-19 10:33N 33°44' W 118°17'0 0.0
2017-Mar-19 09:33N 33°44' W 118°17'0 0.0
2017-Mar-19 08:33N 33°44' W 118°17'2 2.1
2017-Mar-19 07:32N 33°43' W 118°15'3 2.7
2017-Mar-19 06:31N 33°45' W 118°12'2 1.8
2017-Mar-19 05:29N 33°44' W 118°10'0 0.2
2017-Mar-19 04:33N 33°44' W 118°10'5 5.1
2017-Mar-19 03:30N 33°44' W 118°17'0 0.0
2017-Mar-19 02:33N 33°44' W 118°17'0 0.0
2017-Mar-19 01:31N 33°44' W 118°17'0 0.0
2017-Mar-19 00:33N 33°44' W 118°17'0 0.0
2017-Mar-18 23:33N 33°44' W 118°17'0 0.0
2017-Mar-18 22:32N 33°44' W 118°17'0 0.0
2017-Mar-18 21:34N 33°44' W 118°17'0 0.0
2017-Mar-18 20:33N 33°44' W 118°17'0 0.0
2017-Mar-18 19:33N 33°44' W 118°17'0 0.0
2017-Mar-18 18:33N 33°44' W 118°17'0 0.0
2017-Mar-18 17:33N 33°44' W 118°17'0 0.0
2017-Mar-18 16:33N 33°44' W 118°17'0 0.0
2017-Mar-18 15:21N 33°44' W 118°17'1 1.8
2017-Mar-18 14:33N 33°44' W 118°15'1 1.1
2017-Mar-18 13:29N 33°43' W 118°15'2 2.6
2017-Mar-18 12:31N 33°45' W 118°14'1 1.0
2017-Mar-18 11:33N 33°46' W 118°13'1 0.7
2017-Mar-18 10:33N 33°46' W 118°14'3 2.6
2017-Mar-18 09:32N 33°44' W 118°17'0 0.0
2017-Mar-18 08:31N 33°44' W 118°17'0 0.0
2017-Mar-18 07:33N 33°44' W 118°17'0 0.0
2017-Mar-18 06:32N 33°44' W 118°17'0 0.0
2017-Mar-18 05:33N 33°44' W 118°17'0 0.0
2017-Mar-18 04:33N 33°44' W 118°17'2 1.5
2017-Mar-18 03:33N 33°43' W 118°16'4 3.6
2017-Mar-18 02:33N 33°44' W 118°12'2 1.7
2017-Mar-18 01:33N 33°45' W 118°13'3 2.5
2017-Mar-18 00:33N 33°45' W 118°16'3 3.2
2017-Mar-17 23:33N 33°42' W 118°15'1 1.1
2017-Mar-17 22:33N 33°43' W 118°16'2 1.6
2017-Mar-17 21:33N 33°44' W 118°17'0 0.0
2017-Mar-17 20:33N 33°44' W 118°17'0 0.0
2017-Mar-17 19:33N 33°44' W 118°17'0 0.0
2017-Mar-17 18:33N 33°44' W 118°17'0 0.0
2017-Mar-17 17:33N 33°44' W 118°17'0 0.0
2017-Mar-17 16:33N 33°44' W 118°17'0 0.0
2017-Mar-17 15:31N 33°44' W 118°17'0 0.0
2017-Mar-17 14:33N 33°44' W 118°17'0 0.0
2017-Mar-17 13:26N 33°44' W 118°17'0 0.0
2017-Mar-17 12:33N 33°44' W 118°17'0 0.0
2017-Mar-17 11:28N 33°44' W 118°17'0 0.0
2017-Mar-17 10:33N 33°44' W 118°17'0 0.0
2017-Mar-17 09:33N 33°44' W 118°17'0 0.0
2017-Mar-17 08:28N 33°44' W 118°17'1 0.6
2017-Mar-17 07:33N 33°45' W 118°16'1 0.7
2017-Mar-17 06:33N 33°46' W 118°16'1 1.3
2017-Mar-17 05:33N 33°44' W 118°17'1 0.3
2017-Mar-17 01:33N 33°46' W 118°16'  
Track history (hours):
 
Tides and Currents Weather Stations Pressure Air Temp Water Temp Dewpoint Dewpoint Depression Visibility Wind Speed Wind Dir Waves Ship Positions

Goliah

Owner: Crowley Marine Services, Seattle, WA. More information available from US FCC via Universal Licensing System and Coast Guard Vessel Documentation Center.

Last reported at 2017-Mar-27 01:23 UTC. Time now 2017-Mar-27 08:42 UTC.
Position N 33°44' W 118°17'.

Length 33 m; draft 4.8 m.

Type: Tug. MMSI: 366898250.

Date/timePositionNaut miles runAvg speedWind from/ knotsBaromVisibWave heightAir tempDewpointWater temp
2017-Mar-27 01:23N 33°44' W 118°17'3 0.2
2017-Mar-26 08:12N 33°45' W 118°13'1 0.1
2017-Mar-25 21:26N 33°45' W 118°13'2 2.1
2017-Mar-25 20:32N 33°44' W 118°12'4 0.4
2017-Mar-25 10:30N 33°45' W 118°16'0 0.5
2017-Mar-25 09:32N 33°46' W 118°17'1 0.7
2017-Mar-25 07:32N 33°44' W 118°17'0 0.0
2017-Mar-25 04:20N 33°44' W 118°17'0 0.0
2017-Mar-25 03:33N 33°44' W 118°17'0 0.0
2017-Mar-25 02:28N 33°44' W 118°17'3 3.5
2017-Mar-25 01:33N 33°46' W 118°13'1 0.7
2017-Mar-25 00:33N 33°46' W 118°14'1 1.5
2017-Mar-24 23:33N 33°45' W 118°13'0 0.0
2017-Mar-24 22:33N 33°45' W 118°13'0 0.3
2017-Mar-24 21:33N 33°45' W 118°13'1 0.6
2017-Mar-24 19:32N 33°46' W 118°13'3 2.9
2017-Mar-24 18:26N 33°44' W 118°17'0 0.0
2017-Mar-24 15:33N 33°44' W 118°17'0 0.0
2017-Mar-24 14:14N 33°44' W 118°17'0 0.0
2017-Mar-24 13:33N 33°44' W 118°17'1 1.4
2017-Mar-24 12:33N 33°46' W 118°16'4 2.7
2017-Mar-24 11:14N 33°43' W 118°13'2 2.5
2017-Mar-24 10:33N 33°45' W 118°12'0 0.1
2017-Mar-24 09:32N 33°45' W 118°12'4 0.4
2017-Mar-24 00:27N 33°46' W 118°16'1 0.7
2017-Mar-23 22:29N 33°45' W 118°17'1 1.5
2017-Mar-23 21:31N 33°43' W 118°16'1 1.3
2017-Mar-23 20:32N 33°44' W 118°17'2 0.1
2017-Mar-22 22:22N 33°43' W 118°15'3 2.9
2017-Mar-22 21:25N 33°45' W 118°16'0 0.5
2017-Mar-22 20:33N 33°45' W 118°16'1 0.5
2017-Mar-22 19:19N 33°44' W 118°17'1 0.0
2017-Mar-21 23:32N 33°44' W 118°16'2 2.2
2017-Mar-21 22:32N 33°46' W 118°17'2 1.6
2017-Mar-21 21:33N 33°44' W 118°17'0 0.0
2017-Mar-21 20:33N 33°44' W 118°17'0 0.1
2017-Mar-21 15:10N 33°44' W 118°17'3 2.1
2017-Mar-21 13:31N 33°44' W 118°12'1 0.2
2017-Mar-21 11:26N 33°45' W 118°13'3 0.2
2017-Mar-20 19:29N 33°44' W 118°17'3 0.4
2017-Mar-20 13:23N 33°44' W 118°14'2 1.8
2017-Mar-20 12:29N 33°45' W 118°12'0 0.1
2017-Mar-20 07:10N 33°45' W 118°13'0 0.1
2017-Mar-20 05:21N 33°45' W 118°13'4 4.8
2017-Mar-20 04:28N 33°41' W 118°10'4 4.4
2017-Mar-20 03:33N 33°43' W 118°15'2 2.3
2017-Mar-20 02:33N 33°44' W 118°17'0 0.0
2017-Mar-20 01:31N 33°44' W 118°17'3 2.9
2017-Mar-20 00:33N 33°44' W 118°13'2 2.1
2017-Mar-19 23:33N 33°46' W 118°14'0 0.2
2017-Mar-19 22:33N 33°46' W 118°14'3 3.2
2017-Mar-19 21:32N 33°43' W 118°12'4 4.1
2017-Mar-19 20:31N 33°44' W 118°17'0 0.0
2017-Mar-19 19:33N 33°44' W 118°17'0 0.0
2017-Mar-19 18:33N 33°44' W 118°17'0 0.0
2017-Mar-19 17:30N 33°44' W 118°17'0 0.0
2017-Mar-19 16:34N 33°44' W 118°17'0 0.0
2017-Mar-19 15:32N 33°44' W 118°17'0 0.0
2017-Mar-19 14:33N 33°44' W 118°17'1 0.6
2017-Mar-19 13:33N 33°44' W 118°16'1 1.2
2017-Mar-19 12:33N 33°44' W 118°15'0 0.3
2017-Mar-19 11:33N 33°44' W 118°15'1 1.2
2017-Mar-19 10:33N 33°44' W 118°17'0 0.0
2017-Mar-19 09:33N 33°44' W 118°17'0 0.0
2017-Mar-19 08:33N 33°44' W 118°17'2 2.1
2017-Mar-19 07:32N 33°43' W 118°15'3 2.7
2017-Mar-19 06:31N 33°45' W 118°12'2 1.8
2017-Mar-19 05:29N 33°44' W 118°10'0 0.2
2017-Mar-19 04:33N 33°44' W 118°10'5 5.1
2017-Mar-19 03:30N 33°44' W 118°17'0 0.0
2017-Mar-19 02:33N 33°44' W 118°17'0 0.0
2017-Mar-19 01:31N 33°44' W 118°17'0 0.0
2017-Mar-19 00:33N 33°44' W 118°17'0 0.0
2017-Mar-18 23:33N 33°44' W 118°17'0 0.0
2017-Mar-18 22:32N 33°44' W 118°17'0 0.0
2017-Mar-18 21:34N 33°44' W 118°17'0 0.0
2017-Mar-18 20:33N 33°44' W 118°17'0 0.0
2017-Mar-18 19:33N 33°44' W 118°17'0 0.0
2017-Mar-18 18:33N 33°44' W 118°17'0 0.0
2017-Mar-18 17:33N 33°44' W 118°17'0 0.0
2017-Mar-18 16:33N 33°44' W 118°17'0 0.0
2017-Mar-18 15:21N 33°44' W 118°17'1 1.8
2017-Mar-18 14:33N 33°44' W 118°15'1 1.1
2017-Mar-18 13:29N 33°43' W 118°15'2 2.6
2017-Mar-18 12:31N 33°45' W 118°14'1 1.0
2017-Mar-18 11:33N 33°46' W 118°13'1 0.7
2017-Mar-18 10:33N 33°46' W 118°14'3 2.6
2017-Mar-18 09:32N 33°44' W 118°17'0 0.0
2017-Mar-18 08:31N 33°44' W 118°17'0 0.0
2017-Mar-18 07:33N 33°44' W 118°17'0 0.0
2017-Mar-18 06:32N 33°44' W 118°17'0 0.0
2017-Mar-18 05:33N 33°44' W 118°17'0 0.0
2017-Mar-18 04:33N 33°44' W 118°17'2 1.5
2017-Mar-18 03:33N 33°43' W 118°16'4 3.6
2017-Mar-18 02:33N 33°44' W 118°12'2 1.7
2017-Mar-18 01:33N 33°45' W 118°13'3 2.5
2017-Mar-18 00:33N 33°45' W 118°16'3 3.2
2017-Mar-17 23:33N 33°42' W 118°15'1 1.1
2017-Mar-17 22:33N 33°43' W 118°16'2 1.6
2017-Mar-17 21:33N 33°44' W 118°17'0 0.0
2017-Mar-17 20:33N 33°44' W 118°17'0 0.0
2017-Mar-17 19:33N 33°44' W 118°17'0 0.0
2017-Mar-17 18:33N 33°44' W 118°17'0 0.0
2017-Mar-17 17:33N 33°44' W 118°17'0 0.0
2017-Mar-17 16:33N 33°44' W 118°17'0 0.0
2017-Mar-17 15:31N 33°44' W 118°17'0 0.0
2017-Mar-17 14:33N 33°44' W 118°17'0 0.0
2017-Mar-17 13:26N 33°44' W 118°17'0 0.0
2017-Mar-17 12:33N 33°44' W 118°17'0 0.0
2017-Mar-17 11:28N 33°44' W 118°17'0 0.0
2017-Mar-17 10:33N 33°44' W 118°17'0 0.0
2017-Mar-17 09:33N 33°44' W 118°17'0 0.0
2017-Mar-17 08:28N 33°44' W 118°17'1 0.6
2017-Mar-17 07:33N 33°45' W 118°16'1 0.7
2017-Mar-17 06:33N 33°46' W 118°16'1 1.3
2017-Mar-17 05:33N 33°44' W 118°17'1 0.3
2017-Mar-17 01:33N 33°46' W 118°16'  

Dump ship's entire track history